createdAt,value
2023-04-02T00:00:11.974Z,18.70
2023-04-02T00:03:08.704Z,17.20
2023-04-02T00:05:37.275Z,14.50
2023-04-02T00:08:19.595Z,14.00
2023-04-02T00:11:00.962Z,13.70
2023-04-02T00:13:34.586Z,15.50
2023-04-02T00:16:06.830Z,15.30
2023-04-02T00:18:40.688Z,14.10
2023-04-02T00:21:17.378Z,15.80
2023-04-02T00:23:45.903Z,15.90
2023-04-02T00:26:43.525Z,15.30
2023-04-02T00:29:13.695Z,15.30
2023-04-02T00:31:45.045Z,15.10
2023-04-02T00:34:25.880Z,15.00
2023-04-02T00:36:54.494Z,15.50
2023-04-02T00:39:25.906Z,17.50
2023-04-02T00:42:05.287Z,16.70
2023-04-02T00:44:38.593Z,17.10
2023-04-02T00:47:20.338Z,15.90
2023-04-02T00:49:54.336Z,17.40
2023-04-02T00:52:27.978Z,18.30
2023-04-02T00:55:01.331Z,14.70
2023-04-02T00:57:29.759Z,14.70
2023-04-02T01:00:22.976Z,14.50
2023-04-02T01:03:28.749Z,15.10
2023-04-02T01:06:03.694Z,14.60
2023-04-02T01:08:34.851Z,17.10
2023-04-02T01:11:34.874Z,16.20
2023-04-02T01:14:12.244Z,14.70
2023-04-02T01:16:46.758Z,16.70
2023-04-02T01:19:27.514Z,18.40
2023-04-02T01:22:05.240Z,16.70
2023-04-02T01:24:37.438Z,15.50
2023-04-02T01:27:16.593Z,17.10
2023-04-02T01:29:56.767Z,15.80
2023-04-02T01:32:28.356Z,16.20
2023-04-02T01:34:58.450Z,15.20
2023-04-02T01:37:32.755Z,15.00
2023-04-02T01:40:06.559Z,14.50
2023-04-02T01:42:34.791Z,14.30
2023-04-02T01:45:09.120Z,13.70
2023-04-02T01:47:38.978Z,13.50
2023-04-02T01:50:25.829Z,13.80
2023-04-02T01:52:57.310Z,14.90
2023-04-02T01:55:33.654Z,12.50
2023-04-02T01:58:04.012Z,14.10
2023-04-02T02:00:34.684Z,13.20
2023-04-02T02:03:03.969Z,13.40
2023-04-02T02:05:32.950Z,15.80
2023-04-02T02:08:02.193Z,15.00
2023-04-02T02:10:38.998Z,14.20
2023-04-02T02:13:07.291Z,12.80
2023-04-02T02:15:36.574Z,15.70
2023-04-02T02:18:06.935Z,15.40
2023-04-02T02:20:36.295Z,15.50
2023-04-02T02:23:05.646Z,14.20
2023-04-02T02:25:36.473Z,14.80
2023-04-02T02:28:21.269Z,14.00
2023-04-02T02:30:54.358Z,15.20
2023-04-02T02:33:47.737Z,15.90
2023-04-02T02:36:25.121Z,14.50
2023-04-02T02:39:03.764Z,15.70
2023-04-02T02:41:56.389Z,13.40
2023-04-02T02:44:29.397Z,14.90
2023-04-02T02:47:04.561Z,18.30
2023-04-02T02:49:36.454Z,20.90
2023-04-02T02:52:08.803Z,15.50
2023-04-02T02:55:01.281Z,16.00
2023-04-02T02:57:37.654Z,15.00
2023-04-02T03:00:10.075Z,13.20
2023-04-02T03:02:40.627Z,12.90
2023-04-02T03:05:16.177Z,13.50
2023-04-02T03:07:44.970Z,12.10
2023-04-02T03:10:42.921Z,11.40
2023-04-02T03:13:26.670Z,10.80
2023-04-02T03:16:07.394Z,10.60
2023-04-02T03:18:59.581Z,12.30
2023-04-02T03:21:39.689Z,9.40
2023-04-02T03:24:37.499Z,8.70
2023-04-02T03:27:37.363Z,11.50
2023-04-02T03:30:37.243Z,9.10
2023-04-02T03:33:58.870Z,10.20
2023-04-02T03:36:52.229Z,11.10
2023-04-02T03:39:31.350Z,10.30
2023-04-02T03:42:07.000Z,10.30
2023-04-02T03:45:15.626Z,9.40
2023-04-02T03:48:13.081Z,11.90
2023-04-02T03:50:52.590Z,11.40
2023-04-02T03:53:25.209Z,11.50
2023-04-02T03:55:55.916Z,10.70
2023-04-02T03:58:42.146Z,10.90
2023-04-02T04:01:23.718Z,12.00
2023-04-02T04:04:02.009Z,10.30
2023-04-02T04:06:33.690Z,9.90
2023-04-02T04:09:11.485Z,11.00
2023-04-02T04:11:46.251Z,11.60
2023-04-02T04:14:19.509Z,10.40
2023-04-02T04:17:04.552Z,8.70
2023-04-02T04:19:45.741Z,10.50
2023-04-02T04:22:30.692Z,10.20
2023-04-02T04:25:07.682Z,10.90
2023-04-02T04:27:58.469Z,9.80
2023-04-02T04:30:44.150Z,10.70
2023-04-02T04:33:22.712Z,10.80
2023-04-02T04:36:03.726Z,10.10
2023-04-02T04:38:39.727Z,10.50
2023-04-02T04:41:19.595Z,11.10
2023-04-02T04:43:51.327Z,10.20
2023-04-02T04:46:31.224Z,11.80
2023-04-02T04:49:12.399Z,10.40
2023-04-02T04:51:56.425Z,12.10
2023-04-02T04:54:27.907Z,12.40
2023-04-02T04:57:01.872Z,11.90
2023-04-02T04:59:36.516Z,11.60
2023-04-02T05:02:19.848Z,12.00
2023-04-02T05:04:51.975Z,11.90
2023-04-02T05:07:37.048Z,12.20
2023-04-02T05:10:14.739Z,13.40
2023-04-02T05:12:54.682Z,11.00
2023-04-02T05:15:32.517Z,11.50
2023-04-02T05:18:44.483Z,11.50
2023-04-02T05:21:19.749Z,11.90
2023-04-02T05:23:51.579Z,11.20
2023-04-02T05:26:29.577Z,9.80
2023-04-02T05:29:16.327Z,9.30
2023-04-02T05:31:54.650Z,9.40
2023-04-02T05:34:33.537Z,9.90
2023-04-02T05:37:02.587Z,10.10
2023-04-02T05:39:32.889Z,9.70
2023-04-02T05:42:08.451Z,10.20
2023-04-02T05:45:07.184Z,10.90
2023-04-02T05:47:41.308Z,11.70
2023-04-02T05:50:25.464Z,10.50
2023-04-02T05:53:09.383Z,9.80
2023-04-02T05:55:49.128Z,12.20
2023-04-02T05:58:37.028Z,9.70
2023-04-02T06:01:45.589Z,9.30
2023-04-02T06:04:47.051Z,9.40
2023-04-02T06:07:23.129Z,11.00
2023-04-02T06:10:29.283Z,9.10
2023-04-02T06:13:03.741Z,10.00
2023-04-02T06:15:38.002Z,10.20
2023-04-02T06:18:20.207Z,11.40
2023-04-02T06:20:49.902Z,12.40
2023-04-02T06:23:23.445Z,11.30
2023-04-02T06:26:00.793Z,11.70
2023-04-02T06:28:42.269Z,11.20
2023-04-02T06:31:27.871Z,11.40
2023-04-02T06:33:57.177Z,11.80
2023-04-02T06:36:28.747Z,12.20
2023-04-02T06:39:07.941Z,13.00
2023-04-02T06:41:36.838Z,12.70
2023-04-02T06:44:28.310Z,15.50
2023-04-02T06:47:11.931Z,11.70
2023-04-02T06:49:48.388Z,10.90
2023-04-02T06:52:26.972Z,10.80
2023-04-02T06:54:55.418Z,11.00
2023-04-02T06:57:25.287Z,9.90
2023-04-02T06:59:54.728Z,11.10
2023-04-02T07:02:35.555Z,11.80
2023-04-02T07:05:11.851Z,7.00
2023-04-02T07:10:15.726Z,8.50
2023-04-02T07:12:43.946Z,7.60
2023-04-02T07:15:19.998Z,10.70
2023-04-02T07:17:49.042Z,8.90
2023-04-02T07:20:38.953Z,8.80
2023-04-02T07:23:10.443Z,8.10
2023-04-02T07:25:38.468Z,7.60
2023-04-02T07:28:06.712Z,9.00
2023-04-02T07:30:35.547Z,7.10
2023-04-02T07:33:03.717Z,9.10
2023-04-02T07:35:32.178Z,9.20
2023-04-02T07:38:00.553Z,9.90
2023-04-02T07:40:28.632Z,8.00
2023-04-02T07:42:56.898Z,9.00
2023-04-02T07:45:24.968Z,11.80
2023-04-02T07:47:53.906Z,9.60
2023-04-02T07:50:23.036Z,8.70
2023-04-02T07:55:19.084Z,9.40
2023-04-02T07:57:52.615Z,9.40
2023-04-02T08:00:23.102Z,11.70
2023-04-02T08:02:52.824Z,7.90
2023-04-02T08:05:20.992Z,8.30
2023-04-02T08:07:56.229Z,8.20
2023-04-02T08:10:25.097Z,5.90
2023-04-02T08:12:53.496Z,7.60
2023-04-02T08:15:21.873Z,7.80
2023-04-02T08:17:50.006Z,7.70
2023-04-02T08:20:22.941Z,7.60
2023-04-02T08:22:51.224Z,6.60
2023-04-02T08:25:19.572Z,7.50
2023-04-02T08:27:48.798Z,7.30
2023-04-02T08:30:18.189Z,6.80
2023-04-02T08:32:46.545Z,7.30
2023-04-02T08:35:16.913Z,9.10
2023-04-02T08:37:45.174Z,6.40
2023-04-02T08:40:23.218Z,7.60
2023-04-02T08:43:22.343Z,6.90
2023-04-02T08:46:00.625Z,7.50
2023-04-02T08:48:32.725Z,6.20
2023-04-02T08:51:02.769Z,6.70
2023-04-02T08:53:35.074Z,6.30
2023-04-02T08:56:18.000Z,5.80
2023-04-02T08:58:54.438Z,5.60
2023-04-02T09:01:41.737Z,6.20
2023-04-02T09:04:23.390Z,6.90
2023-04-02T09:06:55.516Z,7.00
2023-04-02T09:09:25.060Z,8.20
2023-04-02T09:11:55.024Z,8.00
2023-04-02T09:14:58.789Z,6.90
2023-04-02T09:17:27.630Z,6.50
2023-04-02T09:20:17.381Z,5.90
2023-04-02T09:22:48.627Z,6.10
2023-04-02T09:25:22.125Z,5.50
2023-04-02T09:27:53.344Z,5.20
2023-04-02T09:31:02.311Z,6.40
2023-04-02T09:33:51.002Z,5.70
2023-04-02T09:36:19.050Z,6.30
2023-04-02T09:39:07.387Z,5.90
2023-04-02T09:41:37.200Z,6.60
2023-04-02T09:44:26.282Z,6.20
2023-04-02T09:49:34.959Z,6.50
2023-04-02T09:52:18.156Z,6.80
2023-04-02T09:55:06.088Z,7.30
2023-04-02T09:57:34.242Z,6.50
2023-04-02T10:00:32.243Z,7.00
2023-04-02T10:03:33.242Z,6.00
2023-04-02T10:06:16.464Z,6.20
2023-04-02T10:08:45.698Z,6.20
2023-04-02T10:11:20.081Z,9.10
2023-04-02T10:14:12.227Z,6.20
2023-04-02T10:16:58.217Z,6.50
2023-04-02T10:19:41.085Z,8.00
2023-04-02T10:22:21.083Z,4.60
2023-04-02T10:24:50.790Z,5.70
2023-04-02T10:27:26.328Z,5.60
2023-04-02T10:30:40.276Z,6.00
2023-04-02T10:33:20.230Z,5.50
2023-04-02T10:35:51.061Z,5.30
2023-04-02T10:38:28.322Z,5.20
2023-04-02T10:41:05.666Z,6.10
2023-04-02T10:43:47.085Z,5.90
2023-04-02T10:46:24.472Z,4.70
2023-04-02T10:49:12.463Z,4.50
2023-04-02T10:51:56.291Z,5.00
2023-04-02T10:54:46.586Z,5.10
2023-04-02T10:57:26.959Z,5.40
2023-04-02T11:00:08.270Z,4.40
2023-04-02T11:03:00.244Z,3.80
2023-04-02T11:05:32.964Z,4.30
2023-04-02T11:08:07.781Z,4.10
2023-04-02T11:10:40.723Z,4.20
2023-04-02T11:13:29.110Z,3.30
2023-04-02T11:15:57.321Z,3.00
2023-04-02T11:18:36.130Z,3.90
2023-04-02T11:21:25.829Z,3.30
2023-04-02T11:24:03.903Z,4.50
2023-04-02T11:26:41.315Z,3.90
2023-04-02T11:29:19.396Z,3.30
2023-04-02T11:31:49.718Z,4.70
2023-04-02T11:34:49.552Z,3.80
2023-04-02T11:37:45.838Z,3.90
2023-04-02T11:40:14.171Z,3.80
2023-04-02T11:42:50.583Z,3.70
2023-04-02T11:45:21.644Z,3.90
2023-04-02T11:48:13.159Z,4.10
2023-04-02T11:50:44.193Z,3.70
2023-04-02T11:53:12.343Z,4.60
2023-04-02T11:55:43.026Z,8.10
2023-04-02T11:58:22.966Z,3.40
2023-04-02T12:01:15.788Z,2.60
2023-04-02T12:04:21.423Z,3.20
2023-04-02T12:06:49.611Z,2.50
2023-04-02T12:09:24.136Z,2.50
2023-04-02T12:11:54.972Z,4.50
2023-04-02T12:14:38.278Z,2.20
2023-04-02T12:17:18.892Z,2.20
2023-04-02T12:19:53.097Z,6.30
2023-04-02T12:22:28.090Z,2.00
2023-04-02T12:25:00.589Z,3.10
2023-04-02T12:27:30.283Z,2.20
2023-04-02T12:30:18.848Z,2.50
2023-04-02T12:32:48.014Z,2.60
2023-04-02T12:35:29.404Z,3.60
2023-04-02T12:37:58.163Z,4.30
2023-04-02T12:40:27.320Z,3.40
2023-04-02T12:45:29.333Z,2.60
2023-04-02T12:47:58.521Z,2.50
2023-04-02T12:50:26.856Z,2.90
2023-04-02T12:52:58.426Z,2.70
2023-04-02T12:55:27.507Z,2.80
2023-04-02T12:57:57.665Z,2.10
2023-04-02T13:00:25.799Z,5.10
2023-04-02T13:03:06.234Z,3.30
2023-04-02T13:05:39.718Z,2.50
2023-04-02T13:08:17.489Z,3.50
2023-04-02T13:10:52.142Z,3.60
2023-04-02T13:13:27.991Z,2.50
2023-04-02T13:16:02.934Z,2.90
2023-04-02T13:18:33.497Z,4.20
2023-04-02T13:21:07.098Z,2.70
2023-04-02T13:23:37.795Z,3.40
2023-04-02T13:26:08.773Z,3.80
2023-04-02T13:28:37.668Z,3.80
2023-04-02T13:33:34.043Z,5.50
2023-04-02T13:36:02.320Z,4.00
2023-04-02T13:38:30.434Z,4.80
2023-04-02T13:40:58.832Z,4.90
2023-04-02T13:43:26.900Z,4.90
2023-04-02T13:45:58.386Z,6.00
2023-04-02T13:48:28.985Z,4.20
2023-04-02T13:50:57.160Z,4.50
2023-04-02T13:53:32.835Z,4.20
2023-04-02T13:56:01.101Z,4.90
2023-04-02T13:58:29.075Z,4.80
2023-04-02T14:00:57.342Z,4.20
2023-04-02T14:03:26.026Z,4.40
2023-04-02T14:06:24.230Z,4.50
2023-04-02T14:09:22.068Z,4.40
2023-04-02T14:11:59.045Z,4.30
2023-04-02T14:15:00.721Z,4.50
2023-04-02T14:17:37.505Z,4.30
2023-04-02T14:20:13.650Z,4.70
2023-04-02T14:22:41.637Z,4.90
2023-04-02T14:25:47.766Z,4.50
2023-04-02T14:28:38.199Z,4.00
2023-04-02T14:31:34.129Z,5.20
2023-04-02T14:34:38.913Z,4.40
2023-04-02T14:37:18.159Z,4.50
2023-04-02T14:42:36.611Z,4.70
2023-04-02T14:45:24.850Z,4.20
2023-04-02T14:48:03.450Z,4.80
2023-04-02T14:50:38.924Z,4.80
2023-04-02T14:53:18.560Z,3.70
2023-04-02T14:55:49.515Z,4.60
2023-04-02T14:58:29.717Z,4.40
2023-04-02T15:01:36.849Z,4.70
2023-04-02T15:04:11.062Z,5.10
2023-04-02T15:06:47.696Z,4.60
2023-04-02T15:09:24.085Z,4.50
2023-04-02T15:11:56.811Z,4.60
2023-04-02T15:14:33.552Z,4.80
2023-04-02T15:17:01.645Z,4.10
2023-04-02T15:19:30.052Z,4.30
2023-04-02T15:22:32.370Z,4.10
2023-04-02T15:25:18.561Z,4.40
2023-04-02T15:28:07.368Z,4.30
2023-04-02T15:30:44.295Z,3.90
2023-04-02T15:33:33.986Z,4.50
2023-04-02T15:36:14.760Z,4.30
2023-04-02T15:38:52.445Z,4.60
2023-04-02T15:41:32.237Z,4.20
2023-04-02T15:44:13.257Z,3.30
2023-04-02T15:47:12.151Z,4.20
2023-04-02T15:49:56.943Z,3.30
2023-04-02T15:52:34.301Z,3.80
2023-04-02T15:55:24.572Z,3.70
2023-04-02T15:58:10.379Z,3.10
2023-04-02T16:01:03.039Z,4.00
2023-04-02T16:03:43.270Z,4.20
2023-04-02T16:06:43.846Z,4.30
2023-04-02T16:09:34.357Z,4.30
2023-04-02T16:12:15.940Z,3.70
2023-04-02T16:14:47.762Z,4.60
2023-04-02T16:17:26.412Z,4.10
2023-04-02T16:20:15.854Z,3.50
2023-04-02T16:23:00.108Z,5.30
2023-04-02T16:25:39.089Z,5.80
2023-04-02T16:28:22.119Z,5.70
2023-04-02T16:31:02.711Z,6.20
2023-04-02T16:33:56.899Z,5.30
2023-04-02T16:36:43.017Z,6.50
2023-04-02T16:39:36.761Z,4.00
2023-04-02T16:42:25.102Z,5.00
2023-04-02T16:45:19.361Z,5.70
2023-04-02T16:47:59.407Z,5.10
2023-04-02T16:51:11.145Z,5.20
2023-04-02T16:54:02.321Z,4.60
2023-04-02T16:56:52.520Z,5.00
2023-04-02T16:59:29.735Z,4.40
2023-04-02T17:02:13.117Z,3.40
2023-04-02T17:05:08.672Z,4.80
2023-04-02T17:07:53.021Z,2.90
2023-04-02T17:10:31.764Z,2.90
2023-04-02T17:13:19.167Z,7.30
2023-04-02T17:15:59.474Z,3.30
2023-04-02T17:18:27.727Z,2.30
2023-04-02T17:21:09.011Z,2.70
2023-04-02T17:24:01.973Z,2.30
2023-04-02T17:26:34.940Z,2.20
2023-04-02T17:29:09.264Z,2.20
2023-04-02T17:31:40.874Z,1.50
2023-04-02T17:34:22.813Z,1.40
2023-04-02T17:37:06.316Z,1.90
2023-04-02T17:40:00.703Z,1.50
2023-04-02T17:42:38.093Z,1.50
2023-04-02T17:45:34.604Z,1.50
2023-04-02T17:48:09.439Z,1.00
2023-04-02T17:50:44.085Z,0.80
2023-04-02T17:53:22.912Z,0.60
2023-04-02T17:56:09.841Z,5.40
2023-04-02T17:59:05.739Z,0.90
2023-04-02T18:01:40.879Z,1.40
2023-04-02T18:04:24.109Z,2.50
2023-04-02T18:07:12.092Z,1.20
2023-04-02T18:09:49.592Z,1.30
2023-04-02T18:12:23.476Z,1.90
2023-04-02T18:15:10.456Z,1.30
2023-04-02T18:17:51.702Z,2.60
2023-04-02T18:20:27.904Z,1.40
2023-04-02T18:23:08.452Z,1.80
2023-04-02T18:26:27.937Z,2.20
2023-04-02T18:29:19.554Z,1.70
2023-04-02T18:31:57.824Z,2.50
2023-04-02T18:34:50.302Z,2.50
2023-04-02T18:37:47.793Z,1.90
2023-04-02T18:40:35.907Z,2.30
2023-04-02T18:43:19.281Z,2.30
2023-04-02T18:46:22.584Z,2.10
2023-04-02T18:49:15.554Z,1.80
2023-04-02T18:51:44.359Z,2.40
2023-04-02T18:54:43.382Z,3.00
2023-04-02T19:00:23.745Z,3.40
2023-04-02T19:03:13.802Z,6.40
2023-04-02T19:05:49.806Z,10.20
2023-04-02T19:08:28.306Z,10.50
2023-04-02T19:11:06.935Z,8.20
2023-04-02T19:13:35.619Z,8.50
2023-04-02T19:19:03.390Z,9.10
2023-04-02T19:21:50.406Z,9.00
2023-04-02T19:24:52.466Z,10.20
2023-04-02T19:27:58.351Z,8.90
2023-04-02T19:31:09.088Z,9.60
2023-04-02T19:33:57.344Z,6.40
2023-04-02T19:37:04.836Z,4.20
2023-04-02T19:39:46.977Z,3.20
2023-04-02T19:42:41.844Z,3.20
2023-04-02T19:45:39.410Z,5.30
2023-04-02T19:48:14.003Z,3.20
2023-04-02T19:50:42.273Z,3.40
2023-04-02T19:53:10.773Z,4.30
2023-04-02T19:55:41.208Z,4.80
2023-04-02T19:58:24.740Z,3.90
2023-04-02T20:00:53.029Z,4.30
2023-04-02T20:03:21.706Z,4.20
2023-04-02T20:05:49.800Z,3.80
2023-04-02T20:08:18.252Z,3.60
2023-04-02T20:10:46.636Z,6.00
2023-04-02T20:13:14.715Z,4.60
2023-04-02T20:15:42.988Z,4.70
2023-04-02T20:18:11.684Z,4.60
2023-04-02T20:20:39.961Z,6.50
2023-04-02T20:23:08.389Z,7.60
2023-04-02T20:25:36.724Z,6.30
2023-04-02T20:28:04.877Z,8.00
2023-04-02T20:30:33.266Z,9.20
2023-04-02T20:33:02.439Z,11.50
2023-04-02T20:35:34.596Z,7.60
2023-04-02T20:38:06.578Z,10.10
2023-04-02T20:40:35.436Z,7.20
2023-04-02T20:43:03.847Z,7.90
2023-04-02T20:45:32.538Z,8.70
2023-04-02T20:48:00.862Z,7.10
2023-04-02T20:50:29.691Z,7.10
2023-04-02T20:52:58.832Z,7.10
2023-04-02T20:55:26.881Z,7.90
2023-04-02T20:57:55.132Z,7.50
2023-04-02T21:00:23.502Z,8.50
2023-04-02T21:02:51.820Z,7.90
2023-04-02T21:05:20.134Z,6.60
2023-04-02T21:07:49.456Z,6.70
2023-04-02T21:12:45.909Z,6.80
2023-04-02T21:15:13.979Z,7.80
2023-04-02T21:17:42.500Z,6.60
2023-04-02T21:20:12.117Z,6.60
2023-04-02T21:22:40.952Z,7.20
2023-04-02T21:25:09.532Z,7.10
2023-04-02T21:27:37.814Z,7.60
2023-04-02T21:30:06.708Z,7.70
2023-04-02T21:32:35.015Z,7.70
2023-04-02T21:35:03.306Z,7.70
2023-04-02T21:37:31.416Z,7.90
2023-04-02T21:39:59.588Z,6.20
2023-04-02T21:42:27.973Z,8.50
2023-04-02T21:44:56.545Z,7.60
2023-04-02T21:47:25.142Z,8.10
2023-04-02T21:49:53.374Z,6.70
2023-04-02T21:52:21.582Z,6.80
2023-04-02T21:54:49.689Z,7.60
2023-04-02T21:57:18.945Z,7.40
2023-04-02T21:59:47.226Z,6.30
2023-04-02T22:02:16.222Z,7.60
2023-04-02T22:04:45.224Z,6.40
2023-04-02T22:07:13.315Z,6.10
2023-04-02T22:09:41.969Z,7.40
2023-04-02T22:12:09.943Z,7.30
2023-04-02T22:14:38.028Z,6.70
2023-04-02T22:17:07.583Z,7.50
2023-04-02T22:19:35.960Z,6.90
2023-04-02T22:22:04.263Z,6.40
2023-04-02T22:24:32.336Z,6.00
2023-04-02T22:27:00.820Z,6.00
2023-04-02T22:29:28.855Z,6.20
2023-04-02T22:31:57.144Z,6.70
2023-04-02T22:34:25.435Z,6.80
2023-04-02T22:36:53.627Z,6.60
2023-04-02T22:39:21.802Z,6.50
2023-04-02T22:41:49.847Z,7.10
2023-04-02T22:44:18.006Z,6.80
2023-04-02T22:46:46.717Z,6.30
2023-04-02T22:49:19.511Z,5.90
2023-04-02T22:51:48.069Z,5.60
2023-04-02T22:54:16.558Z,5.40
2023-04-02T22:56:44.720Z,4.40
2023-04-02T22:59:13.101Z,5.90
2023-04-02T23:01:41.701Z,5.90
2023-04-02T23:04:09.966Z,5.90
2023-04-02T23:06:38.140Z,8.00
2023-04-02T23:09:06.624Z,7.90
2023-04-02T23:11:35.007Z,8.00
2023-04-02T23:14:03.368Z,8.20
2023-04-02T23:16:31.958Z,8.80
2023-04-02T23:19:00.025Z,8.00
2023-04-02T23:21:28.135Z,7.50
2023-04-02T23:23:56.416Z,6.80
2023-04-02T23:26:30.704Z,7.80
2023-04-02T23:29:00.867Z,7.50
2023-04-02T23:31:29.114Z,7.40
2023-04-02T23:33:57.232Z,7.00
2023-04-02T23:36:26.779Z,8.30
2023-04-02T23:38:58.124Z,8.80
2023-04-02T23:41:27.205Z,8.00
2023-04-02T23:46:24.978Z,7.70
2023-04-02T23:48:54.392Z,6.60
2023-04-02T23:51:23.295Z,7.50
2023-04-02T23:53:52.821Z,6.00
2023-04-02T23:56:22.102Z,7.00
2023-04-02T23:58:51.170Z,7.20
